createdAt,value
2022-10-26T00:01:03.539Z,81.80
2022-10-26T00:03:33.149Z,81.70
2022-10-26T00:06:05.467Z,81.80
2022-10-26T00:08:33.360Z,81.80
2022-10-26T00:11:01.501Z,81.80
2022-10-26T00:13:29.408Z,81.70
2022-10-26T00:15:57.530Z,81.70
2022-10-26T00:18:25.661Z,81.80
2022-10-26T00:20:54.987Z,81.80
2022-10-26T00:23:23.047Z,81.80
2022-10-26T00:25:57.388Z,81.80
2022-10-26T00:28:25.381Z,81.80
2022-10-26T00:30:53.388Z,81.70
2022-10-26T00:33:21.813Z,81.80
2022-10-26T00:35:49.997Z,81.70
2022-10-26T00:38:19.214Z,81.80
2022-10-26T00:40:47.502Z,81.80
2022-10-26T00:43:16.414Z,81.70
2022-10-26T00:45:44.747Z,81.70
2022-10-26T00:48:16.648Z,81.70
2022-10-26T00:50:45.543Z,81.70
2022-10-26T00:53:13.461Z,81.60
2022-10-26T00:55:45.630Z,81.70
2022-10-26T00:58:14.778Z,81.60
2022-10-26T01:00:42.892Z,81.60
2022-10-26T01:03:11.311Z,81.50
2022-10-26T01:05:41.089Z,81.40
2022-10-26T01:08:09.686Z,81.20
2022-10-26T01:10:39.067Z,81.30
2022-10-26T01:13:10.326Z,81.40
2022-10-26T01:15:41.299Z,81.40
2022-10-26T01:18:12.284Z,81.30
2022-10-26T01:20:53.969Z,81.50
2022-10-26T01:23:27.218Z,81.80
2022-10-26T01:26:09.116Z,82.00
2022-10-26T01:28:47.391Z,82.10
2022-10-26T01:31:19.933Z,82.10
2022-10-26T01:33:51.624Z,81.90
2022-10-26T01:36:22.184Z,82.00
2022-10-26T01:38:55.476Z,82.00
2022-10-26T01:41:27.356Z,82.00
2022-10-26T01:43:57.416Z,81.90
2022-10-26T01:46:28.148Z,82.00
2022-10-26T01:48:58.783Z,82.00
2022-10-26T01:51:27.457Z,81.90
2022-10-26T01:53:55.467Z,82.00
2022-10-26T01:56:24.427Z,82.10
2022-10-26T01:59:10.872Z,82.00
2022-10-26T02:01:47.596Z,81.80
2022-10-26T02:04:20.916Z,81.90
2022-10-26T02:06:53.465Z,81.80
2022-10-26T02:09:24.998Z,81.80
2022-10-26T02:11:53.586Z,82.00
2022-10-26T02:14:23.725Z,82.10
2022-10-26T02:17:00.676Z,82.30
2022-10-26T02:19:32.981Z,82.60
2022-10-26T02:22:05.732Z,82.60
2022-10-26T02:24:35.418Z,82.50
2022-10-26T02:27:05.501Z,82.50
2022-10-26T02:29:35.235Z,82.50
2022-10-26T02:32:06.553Z,82.40
2022-10-26T02:34:35.598Z,82.40
2022-10-26T02:37:05.177Z,82.30
2022-10-26T02:39:34.725Z,82.40
2022-10-26T02:42:06.497Z,82.30
2022-10-26T02:44:38.660Z,82.20
2022-10-26T02:47:07.850Z,82.20
2022-10-26T02:49:35.835Z,82.20
2022-10-26T02:52:05.601Z,82.20
2022-10-26T02:54:38.978Z,82.10
2022-10-26T02:57:09.593Z,82.30
2022-10-26T02:59:39.101Z,82.50
2022-10-26T03:02:08.384Z,82.70
2022-10-26T03:04:36.796Z,82.70
2022-10-26T03:07:04.592Z,82.80
2022-10-26T03:09:32.430Z,82.90
2022-10-26T03:12:00.307Z,83.10
2022-10-26T03:14:28.201Z,83.30
2022-10-26T03:16:56.072Z,83.30
2022-10-26T03:19:25.851Z,83.30
2022-10-26T03:21:53.721Z,83.00
2022-10-26T03:24:21.555Z,83.00
2022-10-26T03:26:50.509Z,82.80
2022-10-26T03:29:18.500Z,82.70
2022-10-26T03:31:46.361Z,82.80
2022-10-26T03:34:14.492Z,82.80
2022-10-26T03:36:43.728Z,82.90
2022-10-26T03:39:11.546Z,82.90
2022-10-26T03:41:39.365Z,82.80
2022-10-26T03:44:07.342Z,82.80
2022-10-26T03:46:35.233Z,82.70
2022-10-26T03:49:03.126Z,82.80
2022-10-26T03:51:30.942Z,82.80
2022-10-26T03:54:00.264Z,82.80
2022-10-26T03:56:28.350Z,82.80
2022-10-26T03:58:56.226Z,82.80
2022-10-26T04:01:24.111Z,82.70
2022-10-26T04:03:52.075Z,82.80
2022-10-26T04:06:19.955Z,82.80
2022-10-26T04:08:47.814Z,82.70
2022-10-26T04:11:16.995Z,82.80
2022-10-26T04:13:44.856Z,82.70
2022-10-26T04:16:12.845Z,82.70
2022-10-26T04:18:40.670Z,82.90
2022-10-26T04:21:08.720Z,83.20
2022-10-26T04:23:38.087Z,83.00
2022-10-26T04:26:06.316Z,82.90
2022-10-26T04:28:35.633Z,83.00
2022-10-26T04:31:03.619Z,83.00
2022-10-26T04:33:31.411Z,83.10
2022-10-26T04:36:02.122Z,83.00
2022-10-26T04:38:30.294Z,83.00
2022-10-26T04:40:58.636Z,82.90
2022-10-26T04:43:26.718Z,82.90
2022-10-26T04:45:57.560Z,83.00
2022-10-26T04:50:59.601Z,82.90
2022-10-26T04:53:27.545Z,83.00
2022-10-26T04:55:57.526Z,83.00
2022-10-26T04:58:25.493Z,83.00
2022-10-26T05:00:53.916Z,82.80
2022-10-26T05:03:23.175Z,82.90
2022-10-26T05:05:54.232Z,83.10
2022-10-26T05:08:22.307Z,83.00
2022-10-26T05:10:50.866Z,83.30
2022-10-26T05:13:18.748Z,83.40
2022-10-26T05:15:46.650Z,83.50
2022-10-26T05:18:14.601Z,83.60
2022-10-26T05:20:45.190Z,83.70
2022-10-26T05:23:13.862Z,83.60
2022-10-26T05:25:41.875Z,83.40
2022-10-26T05:28:12.031Z,83.50
2022-10-26T05:30:40.221Z,83.50
2022-10-26T05:33:11.017Z,83.50
2022-10-26T05:35:38.921Z,83.50
2022-10-26T05:38:11.820Z,83.40
2022-10-26T05:40:39.929Z,83.40
2022-10-26T05:43:07.816Z,83.50
2022-10-26T05:45:35.743Z,83.40
2022-10-26T05:48:05.509Z,83.40
2022-10-26T05:50:33.411Z,83.40
2022-10-26T05:53:01.341Z,83.50
2022-10-26T05:55:31.402Z,83.60
2022-10-26T05:57:59.543Z,83.70
2022-10-26T06:00:29.509Z,83.60
2022-10-26T06:03:07.698Z,83.60
2022-10-26T06:05:38.366Z,83.50
2022-10-26T06:08:09.764Z,83.40
2022-10-26T06:10:39.536Z,83.30
2022-10-26T06:13:07.638Z,83.20
2022-10-26T06:15:39.351Z,82.90
2022-10-26T06:18:13.410Z,82.90
2022-10-26T06:20:47.654Z,83.00
2022-10-26T06:23:22.591Z,83.00
2022-10-26T06:25:56.302Z,83.00
2022-10-26T06:28:28.994Z,83.10
2022-10-26T06:30:57.991Z,83.20
2022-10-26T06:33:30.465Z,83.30
2022-10-26T06:36:05.661Z,83.40
2022-10-26T06:38:35.528Z,83.40
2022-10-26T06:41:04.906Z,83.30
2022-10-26T06:43:35.022Z,83.30
2022-10-26T06:46:06.747Z,83.20
2022-10-26T06:48:36.252Z,83.00
2022-10-26T06:51:04.422Z,82.70
2022-10-26T06:53:34.532Z,82.80
2022-10-26T06:56:02.731Z,82.80
2022-10-26T06:58:37.270Z,82.90
2022-10-26T07:01:05.488Z,82.90
2022-10-26T07:03:33.441Z,82.90
2022-10-26T07:06:01.410Z,82.90
2022-10-26T07:08:32.321Z,82.90
2022-10-26T07:11:00.223Z,83.10
2022-10-26T07:13:30.784Z,83.30
2022-10-26T07:16:00.038Z,83.30
2022-10-26T07:18:28.013Z,83.20
2022-10-26T07:20:55.860Z,83.10
2022-10-26T07:23:24.027Z,82.90
2022-10-26T07:25:52.129Z,83.10
2022-10-26T07:28:20.089Z,82.90
2022-10-26T07:30:47.929Z,83.00
2022-10-26T07:33:17.153Z,83.10
2022-10-26T07:35:45.150Z,83.10
2022-10-26T07:38:13.676Z,82.90
2022-10-26T07:40:41.581Z,82.80
2022-10-26T07:43:09.723Z,82.80
2022-10-26T07:45:37.755Z,82.60
2022-10-26T07:48:05.706Z,82.50
2022-10-26T07:50:35.002Z,82.30
2022-10-26T07:53:02.930Z,81.90
2022-10-26T07:55:30.774Z,81.30
2022-10-26T07:57:58.773Z,81.10
2022-10-26T08:00:28.786Z,80.80
2022-10-26T08:02:56.903Z,81.00
2022-10-26T08:05:24.851Z,80.90
2022-10-26T08:07:54.002Z,80.60
2022-10-26T08:10:21.917Z,80.40
2022-10-26T08:12:49.832Z,80.50
2022-10-26T08:15:17.710Z,80.50
2022-10-26T08:17:45.630Z,80.90
2022-10-26T08:20:13.575Z,81.10
2022-10-26T08:22:41.495Z,80.80
2022-10-26T08:25:10.921Z,80.50
2022-10-26T08:27:38.857Z,80.40
2022-10-26T08:30:07.248Z,80.30
2022-10-26T08:32:35.254Z,80.50
2022-10-26T08:35:05.226Z,79.50
2022-10-26T08:37:33.845Z,79.20
2022-10-26T08:40:03.019Z,73.00
2022-10-26T08:42:34.967Z,68.00
2022-10-26T08:45:04.461Z,67.80
2022-10-26T08:47:36.633Z,68.50
2022-10-26T08:50:07.376Z,67.90
2022-10-26T08:52:39.039Z,68.80
2022-10-26T08:55:12.809Z,68.00
2022-10-26T08:57:42.835Z,67.30
2022-10-26T09:00:13.070Z,63.50
2022-10-26T09:02:40.907Z,59.60
2022-10-26T09:05:13.544Z,56.50
2022-10-26T09:07:47.400Z,56.10
2022-10-26T09:10:25.712Z,55.80
2022-10-26T09:12:56.563Z,54.90
2022-10-26T09:15:29.881Z,57.40
2022-10-26T09:17:59.416Z,58.30
2022-10-26T09:20:41.585Z,61.10
2022-10-26T09:23:14.928Z,64.30
2022-10-26T09:25:43.977Z,66.30
2022-10-26T09:28:15.189Z,67.80
2022-10-26T09:30:45.212Z,68.60
2022-10-26T09:33:16.305Z,69.60
2022-10-26T09:35:45.828Z,70.00
2022-10-26T09:38:15.852Z,68.80
2022-10-26T09:40:47.302Z,68.60
2022-10-26T09:43:18.412Z,69.10
2022-10-26T09:45:47.769Z,69.70
2022-10-26T09:48:17.624Z,70.50
2022-10-26T09:50:47.847Z,70.20
2022-10-26T09:53:15.814Z,68.60
2022-10-26T09:55:44.929Z,67.30
2022-10-26T09:58:14.975Z,65.80
2022-10-26T10:00:45.082Z,65.60
2022-10-26T10:03:20.777Z,64.60
2022-10-26T10:05:52.509Z,63.40
2022-10-26T10:08:22.069Z,62.80
2022-10-26T10:11:00.393Z,62.80
2022-10-26T10:13:30.104Z,60.40
2022-10-26T10:16:03.314Z,60.70
2022-10-26T10:18:31.583Z,60.40
2022-10-26T10:21:00.191Z,61.40
2022-10-26T10:23:29.823Z,62.40
2022-10-26T10:26:01.601Z,63.90
2022-10-26T10:28:29.672Z,62.30
2022-10-26T10:30:59.516Z,61.20
2022-10-26T10:33:36.267Z,62.90
2022-10-26T10:36:06.076Z,64.30
2022-10-26T10:38:38.549Z,65.30
2022-10-26T10:41:07.116Z,65.90
2022-10-26T10:43:35.057Z,66.50
2022-10-26T10:46:03.063Z,67.50
2022-10-26T10:48:32.518Z,67.60
2022-10-26T10:51:10.960Z,65.80
2022-10-26T10:53:45.597Z,61.70
2022-10-26T10:56:23.288Z,60.30
2022-10-26T10:58:57.592Z,58.80
2022-10-26T11:01:27.531Z,58.70
2022-10-26T11:06:44.567Z,58.10
2022-10-26T11:09:13.720Z,58.70
2022-10-26T11:11:45.555Z,60.20
2022-10-26T11:14:18.051Z,60.80
2022-10-26T11:16:48.813Z,61.80
2022-10-26T11:19:19.336Z,61.10
2022-10-26T11:21:49.799Z,61.20
2022-10-26T11:24:22.877Z,61.80
2022-10-26T11:26:55.602Z,62.80
2022-10-26T11:29:26.738Z,64.00
2022-10-26T11:31:58.253Z,64.20
2022-10-26T11:34:29.835Z,65.50
2022-10-26T11:37:03.169Z,65.30
2022-10-26T11:39:35.367Z,65.60
2022-10-26T11:42:06.978Z,65.10
2022-10-26T11:44:37.319Z,64.90
2022-10-26T11:47:08.339Z,65.10
2022-10-26T11:49:40.649Z,66.10
2022-10-26T11:52:17.685Z,66.50
2022-10-26T11:54:47.774Z,67.70
2022-10-26T11:57:16.223Z,68.00
2022-10-26T11:59:46.769Z,68.60
2022-10-26T12:02:15.803Z,69.30
2022-10-26T12:04:45.817Z,69.80
2022-10-26T12:07:21.314Z,69.50
2022-10-26T12:09:49.322Z,69.20
2022-10-26T12:12:20.910Z,69.10
2022-10-26T12:14:53.540Z,69.00
2022-10-26T12:17:25.595Z,69.20
2022-10-26T12:19:56.573Z,69.10
2022-10-26T12:22:27.594Z,68.50
2022-10-26T12:25:09.020Z,68.90
2022-10-26T12:27:51.454Z,68.70
2022-10-26T12:30:27.967Z,68.20
2022-10-26T12:32:56.558Z,68.60
2022-10-26T12:35:32.294Z,69.50
2022-10-26T12:38:02.465Z,68.90
2022-10-26T12:40:41.566Z,68.90
2022-10-26T12:43:27.962Z,68.50
2022-10-26T12:46:10.912Z,68.60
2022-10-26T12:48:42.617Z,68.70
2022-10-26T12:51:40.153Z,68.90
2022-10-26T12:54:16.898Z,68.40
2022-10-26T12:56:51.258Z,68.50
2022-10-26T12:59:27.707Z,67.50
2022-10-26T13:02:03.569Z,68.10
2022-10-26T13:04:46.195Z,68.40
2022-10-26T13:07:19.187Z,68.20
2022-10-26T13:09:53.128Z,67.90
2022-10-26T13:12:21.237Z,67.50
2022-10-26T13:15:01.606Z,67.90
2022-10-26T13:17:31.786Z,68.00
2022-10-26T13:20:01.243Z,67.90
2022-10-26T13:22:29.906Z,67.30
2022-10-26T13:25:01.821Z,67.10
2022-10-26T13:27:41.801Z,66.80
2022-10-26T13:30:35.621Z,67.00
2022-10-26T13:33:04.013Z,67.20
2022-10-26T13:35:32.702Z,67.70
2022-10-26T13:38:01.447Z,67.50
2022-10-26T13:40:31.174Z,67.70
2022-10-26T13:43:00.627Z,67.90
2022-10-26T13:45:29.876Z,67.20
2022-10-26T13:48:00.263Z,66.70
2022-10-26T13:50:32.029Z,65.40
2022-10-26T13:53:01.583Z,63.90
2022-10-26T13:55:33.285Z,64.00
2022-10-26T13:58:12.086Z,64.10
2022-10-26T14:00:39.989Z,65.10
2022-10-26T14:03:14.737Z,66.20
2022-10-26T14:05:44.147Z,67.10
2022-10-26T14:08:16.215Z,67.60
2022-10-26T14:10:46.995Z,67.60
2022-10-26T14:13:15.807Z,66.50
2022-10-26T14:15:44.604Z,65.30
2022-10-26T14:18:16.148Z,64.10
2022-10-26T14:20:48.653Z,62.80
2022-10-26T14:23:26.350Z,62.00
2022-10-26T14:25:58.882Z,61.10
2022-10-26T14:28:27.991Z,60.90
2022-10-26T14:30:57.165Z,61.00
2022-10-26T14:33:27.375Z,61.20
2022-10-26T14:35:55.662Z,61.60
2022-10-26T14:38:26.512Z,61.20
2022-10-26T14:40:56.708Z,61.40
2022-10-26T14:43:25.568Z,62.10
2022-10-26T14:45:54.416Z,62.00
2022-10-26T14:48:24.180Z,63.10
2022-10-26T14:50:58.824Z,63.70
2022-10-26T14:53:31.240Z,62.90
2022-10-26T14:56:00.497Z,63.40
2022-10-26T15:01:15.597Z,64.90
2022-10-26T15:03:47.366Z,65.50
2022-10-26T15:06:45.572Z,65.90
2022-10-26T15:09:39.868Z,65.60
2022-10-26T15:12:19.073Z,66.10
2022-10-26T15:14:47.243Z,66.40
2022-10-26T15:17:20.292Z,67.10
2022-10-26T15:19:48.362Z,68.30
2022-10-26T15:22:20.711Z,69.40
2022-10-26T15:24:51.563Z,70.00
2022-10-26T15:27:20.873Z,70.60
2022-10-26T15:29:50.393Z,70.80
2022-10-26T15:32:21.058Z,71.10
2022-10-26T15:34:50.738Z,71.40
2022-10-26T15:37:18.736Z,71.90
2022-10-26T15:39:46.642Z,72.40
2022-10-26T15:42:14.733Z,73.00
2022-10-26T15:44:44.096Z,73.20
2022-10-26T15:47:18.425Z,73.80
2022-10-26T15:49:46.453Z,74.10
2022-10-26T15:52:14.498Z,74.50
2022-10-26T15:54:42.533Z,74.80
2022-10-26T15:57:15.421Z,75.10
2022-10-26T15:59:47.100Z,75.50
2022-10-26T16:02:15.710Z,75.90
2022-10-26T16:04:43.896Z,76.00
2022-10-26T16:07:13.934Z,76.30
2022-10-26T16:09:42.745Z,76.50
2022-10-26T16:12:11.514Z,76.80
2022-10-26T16:15:03.907Z,77.10
2022-10-26T16:17:29.120Z,77.40
2022-10-26T16:19:57.130Z,77.60
2022-10-26T16:22:25.238Z,77.80
2022-10-26T16:24:53.203Z,78.00
2022-10-26T16:27:21.157Z,78.10
2022-10-26T16:29:49.268Z,78.10
2022-10-26T16:32:17.091Z,78.20
2022-10-26T16:34:46.346Z,78.50
2022-10-26T16:37:14.156Z,78.80
2022-10-26T16:39:42.073Z,78.90
2022-10-26T16:42:09.974Z,79.00
2022-10-26T16:44:38.000Z,79.20
2022-10-26T16:47:06.288Z,79.20
2022-10-26T16:49:34.224Z,79.40
2022-10-26T16:52:04.304Z,79.50
2022-10-26T16:54:32.191Z,79.50
2022-10-26T16:57:00.135Z,79.50
2022-10-26T16:59:28.058Z,79.50
2022-10-26T17:01:56.166Z,79.60
2022-10-26T17:04:25.778Z,79.60
2022-10-26T17:06:54.072Z,79.60
2022-10-26T17:09:23.422Z,79.50
2022-10-26T17:11:51.635Z,79.50
2022-10-26T17:14:19.705Z,79.60
2022-10-26T17:16:47.967Z,79.70
2022-10-26T17:19:16.398Z,80.00
2022-10-26T17:21:45.879Z,80.00
2022-10-26T17:24:13.946Z,80.20
2022-10-26T17:26:43.424Z,80.20
2022-10-26T17:29:13.652Z,80.20
2022-10-26T17:31:41.970Z,80.20
2022-10-26T17:34:10.008Z,80.20
2022-10-26T17:36:38.042Z,80.00
2022-10-26T17:39:06.341Z,80.00
2022-10-26T17:41:34.568Z,80.00
2022-10-26T17:44:03.865Z,80.20
2022-10-26T17:46:31.895Z,80.20
2022-10-26T17:49:00.729Z,80.20
2022-10-26T17:51:32.110Z,80.40
2022-10-26T17:54:00.426Z,80.40
2022-10-26T17:56:29.156Z,80.50
2022-10-26T17:58:58.083Z,80.50
2022-10-26T18:01:28.606Z,80.50
2022-10-26T18:03:57.150Z,80.60
2022-10-26T18:06:25.620Z,80.60
2022-10-26T18:08:53.822Z,80.60
2022-10-26T18:11:26.798Z,80.70
2022-10-26T18:13:55.921Z,80.70
2022-10-26T18:16:25.000Z,81.00
2022-10-26T18:19:00.335Z,81.10
2022-10-26T18:21:29.298Z,81.20
2022-10-26T18:23:57.381Z,81.20
2022-10-26T18:26:26.523Z,81.30
2022-10-26T18:28:54.592Z,81.40
2022-10-26T18:31:23.619Z,81.40
2022-10-26T18:33:57.234Z,81.50
2022-10-26T18:36:25.769Z,81.60
2022-10-26T18:38:54.547Z,81.60
2022-10-26T18:41:23.655Z,81.70
2022-10-26T18:43:52.647Z,81.70
2022-10-26T18:46:23.415Z,81.50
2022-10-26T18:48:51.544Z,81.60
2022-10-26T18:51:21.740Z,81.80
2022-10-26T18:53:49.868Z,81.90
2022-10-26T18:56:18.772Z,81.90
2022-10-26T18:58:47.577Z,81.80
2022-10-26T19:01:16.476Z,81.80
2022-10-26T19:03:44.879Z,81.80
2022-10-26T19:06:13.667Z,81.90
2022-10-26T19:08:43.890Z,81.80
2022-10-26T19:11:12.964Z,81.80
2022-10-26T19:13:41.182Z,81.90
2022-10-26T19:16:17.199Z,82.00
2022-10-26T19:21:22.083Z,81.90
2022-10-26T19:23:52.077Z,81.90
2022-10-26T19:26:21.125Z,82.00
2022-10-26T19:28:49.096Z,82.10
2022-10-26T19:31:17.251Z,82.10
2022-10-26T19:33:45.185Z,82.00
2022-10-26T19:36:13.405Z,82.00
2022-10-26T19:38:41.382Z,81.90
2022-10-26T19:41:12.242Z,81.90
2022-10-26T19:43:40.764Z,81.90
2022-10-26T19:46:09.748Z,81.80
2022-10-26T19:48:38.320Z,81.70
2022-10-26T19:51:06.446Z,81.60
2022-10-26T19:53:34.608Z,81.50
2022-10-26T19:56:03.394Z,81.50
2022-10-26T19:58:32.903Z,81.60
2022-10-26T20:01:02.090Z,81.60
2022-10-26T20:03:30.750Z,81.70
2022-10-26T20:05:59.120Z,81.70
2022-10-26T20:08:27.214Z,81.70
2022-10-26T20:10:56.569Z,81.60
2022-10-26T20:13:24.656Z,81.60
2022-10-26T20:15:54.034Z,81.50
2022-10-26T20:18:21.998Z,81.40
2022-10-26T20:20:49.910Z,81.40
2022-10-26T20:23:17.854Z,81.30
2022-10-26T20:25:46.279Z,81.40
2022-10-26T20:28:14.823Z,81.40
2022-10-26T20:30:43.036Z,81.40
2022-10-26T20:33:12.787Z,81.30
2022-10-26T20:35:40.741Z,81.40
2022-10-26T20:38:16.313Z,81.30
2022-10-26T20:40:44.561Z,81.30
2022-10-26T20:43:17.968Z,81.30
2022-10-26T20:45:46.304Z,81.50
2022-10-26T20:48:16.134Z,81.60
2022-10-26T20:50:47.622Z,81.50
2022-10-26T20:53:20.018Z,81.60
2022-10-26T20:55:51.448Z,81.60
2022-10-26T20:58:21.455Z,81.60
2022-10-26T21:00:54.302Z,81.70
2022-10-26T21:03:23.543Z,81.80
2022-10-26T21:05:52.122Z,81.90
2022-10-26T21:08:20.099Z,82.00
2022-10-26T21:10:48.141Z,82.10
2022-10-26T21:13:16.376Z,82.30
2022-10-26T21:15:44.365Z,82.60
2022-10-26T21:18:12.360Z,82.70
2022-10-26T21:20:42.195Z,82.90
2022-10-26T21:23:10.374Z,82.90
2022-10-26T21:25:38.672Z,83.00
2022-10-26T21:28:07.972Z,82.80
2022-10-26T21:30:35.981Z,83.00
2022-10-26T21:33:04.004Z,82.90
2022-10-26T21:35:31.921Z,82.90
2022-10-26T21:38:01.198Z,82.90
2022-10-26T21:40:29.039Z,82.90
2022-10-26T21:42:57.058Z,82.80
2022-10-26T21:45:24.959Z,82.70
2022-10-26T21:47:53.703Z,82.70
2022-10-26T21:50:21.648Z,82.70
2022-10-26T21:52:53.596Z,82.70
2022-10-26T21:55:23.628Z,82.40
2022-10-26T21:57:53.642Z,82.50
2022-10-26T22:00:27.099Z,82.50
2022-10-26T22:02:55.058Z,82.80
2022-10-26T22:05:22.973Z,83.10
2022-10-26T22:07:51.161Z,83.10
2022-10-26T22:10:19.635Z,82.90
2022-10-26T22:12:48.894Z,82.70
2022-10-26T22:15:17.250Z,82.80
2022-10-26T22:17:45.280Z,82.70
2022-10-26T22:20:13.485Z,82.80
2022-10-26T22:22:43.723Z,82.90
2022-10-26T22:25:11.608Z,83.00
2022-10-26T22:27:39.542Z,83.20
2022-10-26T22:30:09.709Z,83.20
2022-10-26T22:32:37.575Z,83.50
2022-10-26T22:35:11.269Z,83.90
2022-10-26T22:37:55.622Z,84.10
2022-10-26T22:40:23.403Z,84.00
2022-10-26T22:42:52.201Z,83.70
2022-10-26T22:45:21.797Z,83.60
2022-10-26T22:47:49.741Z,83.40
2022-10-26T22:50:17.674Z,83.30
2022-10-26T22:52:45.525Z,83.20
2022-10-26T22:55:13.447Z,83.20
2022-10-26T22:57:41.536Z,83.30
2022-10-26T23:00:10.090Z,83.30
2022-10-26T23:02:39.551Z,83.30
2022-10-26T23:05:08.017Z,83.40
2022-10-26T23:07:35.938Z,83.30
2022-10-26T23:10:03.789Z,83.50
2022-10-26T23:12:32.592Z,83.60
2022-10-26T23:15:00.419Z,83.70
2022-10-26T23:17:28.387Z,83.70
2022-10-26T23:20:02.566Z,83.70
2022-10-26T23:22:30.426Z,83.70
2022-10-26T23:24:58.362Z,83.80
2022-10-26T23:27:26.186Z,83.60
2022-10-26T23:29:54.105Z,83.80
2022-10-26T23:32:22.014Z,84.00
2022-10-26T23:34:51.616Z,84.00
2022-10-26T23:37:22.193Z,84.10
2022-10-26T23:39:50.110Z,83.90
2022-10-26T23:42:17.995Z,83.60
2022-10-26T23:44:45.819Z,83.80
2022-10-26T23:47:13.750Z,84.00
2022-10-26T23:49:41.652Z,84.00
2022-10-26T23:52:09.556Z,84.10
2022-10-26T23:54:38.720Z,84.20
2022-10-26T23:57:07.063Z,84.10
2022-10-26T23:59:34.952Z,84.10
